createdAt,value
2023-04-18T00:00:38.878Z,8.43
2023-04-18T00:03:09.801Z,9.00
2023-04-18T00:05:38.689Z,8.48
2023-04-18T00:08:06.814Z,8.65
2023-04-18T00:10:34.916Z,8.45
2023-04-18T00:13:04.012Z,8.90
2023-04-18T00:15:32.376Z,8.82
2023-04-18T00:18:02.511Z,9.35
2023-04-18T00:20:32.121Z,9.30
2023-04-18T00:23:00.695Z,9.30
2023-04-18T00:25:28.919Z,9.40
2023-04-18T00:27:57.049Z,9.20
2023-04-18T00:30:25.464Z,9.20
2023-04-18T00:32:53.621Z,9.00
2023-04-18T00:35:21.727Z,9.05
2023-04-18T00:37:51.933Z,9.57
2023-04-18T00:40:20.219Z,9.95
2023-04-18T00:42:48.355Z,8.88
2023-04-18T00:45:16.614Z,9.23
2023-04-18T00:47:44.896Z,9.55
2023-04-18T00:50:14.111Z,9.95
2023-04-18T00:52:44.819Z,10.18
2023-04-18T00:55:14.483Z,9.98
2023-04-18T00:57:43.263Z,9.93
2023-04-18T01:00:12.380Z,9.75
2023-04-18T01:02:41.527Z,9.77
2023-04-18T01:05:09.978Z,9.73
2023-04-18T01:07:40.770Z,10.20
2023-04-18T01:10:10.337Z,10.13
2023-04-18T01:12:41.112Z,10.25
2023-04-18T01:15:09.910Z,10.05
2023-04-18T01:17:38.627Z,9.73
2023-04-18T01:20:08.008Z,9.65
2023-04-18T01:22:36.190Z,9.52
2023-04-18T01:25:10.219Z,10.13
2023-04-18T01:27:38.333Z,9.82
2023-04-18T01:30:07.651Z,9.77
2023-04-18T01:32:35.778Z,9.23
2023-04-18T01:35:04.024Z,9.05
2023-04-18T01:37:32.798Z,8.38
2023-04-18T01:40:01.989Z,8.90
2023-04-18T01:42:31.549Z,8.95
2023-04-18T01:44:59.592Z,8.90
2023-04-18T01:47:27.760Z,8.95
2023-04-18T01:49:56.278Z,8.40
2023-04-18T01:52:24.438Z,8.60
2023-04-18T01:54:52.499Z,8.55
2023-04-18T01:57:20.542Z,8.38
2023-04-18T01:59:51.855Z,8.88
2023-04-18T02:02:20.176Z,8.65
2023-04-18T02:04:48.384Z,8.75
2023-04-18T02:07:16.437Z,8.45
2023-04-18T02:09:44.590Z,8.35
2023-04-18T02:12:12.767Z,8.25
2023-04-18T02:14:40.915Z,8.63
2023-04-18T02:17:10.458Z,8.82
2023-04-18T02:19:38.590Z,8.05
2023-04-18T02:22:06.822Z,8.00
2023-04-18T02:24:34.930Z,8.05
2023-04-18T02:27:03.199Z,8.80
2023-04-18T02:29:31.264Z,8.35
2023-04-18T02:32:00.174Z,7.75
2023-04-18T02:34:29.641Z,7.63
2023-04-18T02:36:57.740Z,8.55
2023-04-18T02:39:25.870Z,7.75
2023-04-18T02:41:53.933Z,7.82
2023-04-18T02:44:25.192Z,8.00
2023-04-18T02:46:53.354Z,7.80
2023-04-18T02:49:21.464Z,7.10
2023-04-18T02:51:51.204Z,7.93
2023-04-18T02:54:19.261Z,8.30
2023-04-18T02:56:58.305Z,7.43
2023-04-18T02:59:36.615Z,8.45
2023-04-18T03:02:27.370Z,6.90
2023-04-18T03:05:00.050Z,7.97
2023-04-18T03:07:30.937Z,8.15
2023-04-18T03:10:00.649Z,7.38
2023-04-18T03:12:33.571Z,7.30
2023-04-18T03:15:02.190Z,7.65
2023-04-18T03:17:30.509Z,7.20
2023-04-18T03:19:58.823Z,7.53
2023-04-18T03:22:26.943Z,6.90
2023-04-18T03:25:00.141Z,7.20
2023-04-18T03:27:47.854Z,7.28
2023-04-18T03:30:18.653Z,7.10
2023-04-18T03:32:52.965Z,7.30
2023-04-18T03:35:21.216Z,7.60
2023-04-18T03:37:49.418Z,7.65
2023-04-18T03:40:27.011Z,8.18
2023-04-18T03:43:00.928Z,8.30
2023-04-18T03:45:29.136Z,8.35
2023-04-18T03:47:57.714Z,8.10
2023-04-18T03:50:26.737Z,7.75
2023-04-18T03:52:56.759Z,8.75
2023-04-18T03:55:27.371Z,8.80
2023-04-18T03:57:55.597Z,8.60
2023-04-18T04:00:29.698Z,8.57
2023-04-18T04:03:07.016Z,9.02
2023-04-18T04:05:35.745Z,9.60
2023-04-18T04:08:04.199Z,9.27
2023-04-18T04:10:33.611Z,9.40
2023-04-18T04:13:01.699Z,9.15
2023-04-18T04:15:31.124Z,9.45
2023-04-18T04:18:06.273Z,9.38
2023-04-18T04:20:36.936Z,9.88
2023-04-18T04:23:13.198Z,10.98
2023-04-18T04:25:46.373Z,10.45
2023-04-18T04:28:32.583Z,10.07
2023-04-18T04:31:06.142Z,10.00
2023-04-18T04:33:34.284Z,10.13
2023-04-18T04:36:05.987Z,10.43
2023-04-18T04:38:34.451Z,10.35
2023-04-18T04:41:03.960Z,10.35
2023-04-18T04:43:32.273Z,10.32
2023-04-18T04:46:01.005Z,10.13
2023-04-18T04:48:29.151Z,10.40
2023-04-18T04:50:58.674Z,10.38
2023-04-18T04:53:30.362Z,11.05
2023-04-18T04:55:59.814Z,10.63
2023-04-18T04:58:29.759Z,10.23
2023-04-18T05:01:10.695Z,10.82
2023-04-18T05:03:39.319Z,10.82
2023-04-18T05:06:07.748Z,10.48
2023-04-18T05:08:35.913Z,10.85
2023-04-18T05:11:05.160Z,10.18
2023-04-18T05:13:34.574Z,10.55
2023-04-18T05:16:03.012Z,10.18
2023-04-18T05:18:33.077Z,9.18
2023-04-18T05:21:02.931Z,11.20
2023-04-18T05:23:30.988Z,10.43
2023-04-18T05:25:59.065Z,9.50
2023-04-18T05:28:27.352Z,9.73
2023-04-18T05:31:01.263Z,10.23
2023-04-18T05:33:29.584Z,9.25
2023-04-18T05:35:58.013Z,9.27
2023-04-18T05:38:26.343Z,9.82
2023-04-18T05:40:55.826Z,9.85
2023-04-18T05:43:24.430Z,9.88
2023-04-18T05:45:54.273Z,9.38
2023-04-18T05:48:25.664Z,9.85
2023-04-18T05:50:53.779Z,9.43
2023-04-18T05:53:21.816Z,9.55
2023-04-18T05:55:50.202Z,9.57
2023-04-18T05:58:18.337Z,10.07
2023-04-18T06:00:48.074Z,9.43
2023-04-18T06:03:16.288Z,10.45
2023-04-18T06:05:46.115Z,9.52
2023-04-18T06:08:14.249Z,10.00
2023-04-18T06:10:42.305Z,9.95
2023-04-18T06:13:10.315Z,10.07
2023-04-18T06:15:38.482Z,9.73
2023-04-18T06:18:06.640Z,9.93
2023-04-18T06:20:34.695Z,9.75
2023-04-18T06:23:04.115Z,9.65
2023-04-18T06:25:32.164Z,9.02
2023-04-18T06:28:00.336Z,9.27
2023-04-18T06:30:28.411Z,9.38
2023-04-18T06:32:56.505Z,9.70
2023-04-18T06:35:26.368Z,9.82
2023-04-18T06:37:54.749Z,9.05
2023-04-18T06:40:24.223Z,8.98
2023-04-18T06:42:52.284Z,8.90
2023-04-18T06:45:21.739Z,9.38
2023-04-18T06:47:51.404Z,9.27
2023-04-18T06:50:19.669Z,9.30
2023-04-18T06:52:47.690Z,8.85
2023-04-18T06:55:15.826Z,8.80
2023-04-18T06:57:45.249Z,9.00
2023-04-18T07:00:14.219Z,9.82
2023-04-18T07:02:42.520Z,9.02
2023-04-18T07:05:10.951Z,8.90
2023-04-18T07:07:38.989Z,9.25
2023-04-18T07:10:09.695Z,8.15
2023-04-18T07:12:38.331Z,8.73
2023-04-18T07:15:08.958Z,8.82
2023-04-18T07:17:37.085Z,8.65
2023-04-18T07:20:05.852Z,9.32
2023-04-18T07:22:33.905Z,9.18
2023-04-18T07:25:02.100Z,8.68
2023-04-18T07:27:30.153Z,8.63
2023-04-18T07:29:58.180Z,8.57
2023-04-18T07:32:27.814Z,8.40
2023-04-18T07:34:57.467Z,8.48
2023-04-18T07:37:26.184Z,7.97
2023-04-18T07:39:54.210Z,8.50
2023-04-18T07:42:22.296Z,8.13
2023-04-18T07:44:50.672Z,8.13
2023-04-18T07:47:22.433Z,8.45
2023-04-18T07:49:52.240Z,8.75
2023-04-18T07:52:20.421Z,7.90
2023-04-18T07:54:48.448Z,8.45
2023-04-18T07:57:16.525Z,9.10
2023-04-18T07:59:44.572Z,8.45
2023-04-18T08:02:12.731Z,8.35
2023-04-18T08:04:40.892Z,8.15
2023-04-18T08:07:10.473Z,8.15
2023-04-18T08:09:38.521Z,8.07
2023-04-18T08:12:06.902Z,7.88
2023-04-18T08:14:34.965Z,8.23
2023-04-18T08:17:03.690Z,8.20
2023-04-18T08:19:31.768Z,8.13
2023-04-18T08:22:10.960Z,8.20
2023-04-18T08:24:40.109Z,7.93
2023-04-18T08:27:08.494Z,8.60
2023-04-18T08:29:36.582Z,8.85
2023-04-18T08:32:07.985Z,8.32
2023-04-18T08:34:38.085Z,8.43
2023-04-18T08:37:07.294Z,8.90
2023-04-18T08:39:36.787Z,8.30
2023-04-18T08:42:07.563Z,8.05
2023-04-18T08:44:35.836Z,9.18
2023-04-18T08:47:03.937Z,9.07
2023-04-18T08:49:32.309Z,8.85
2023-04-18T08:52:02.063Z,8.82
2023-04-18T08:54:31.259Z,8.00
2023-04-18T08:57:08.815Z,8.93
2023-04-18T08:59:37.096Z,8.38
2023-04-18T09:02:06.839Z,8.45
2023-04-18T09:04:37.286Z,8.13
2023-04-18T09:07:07.348Z,8.50
2023-04-18T09:09:42.449Z,8.32
2023-04-18T09:12:14.397Z,8.88
2023-04-18T09:14:47.154Z,7.07
2023-04-18T09:17:18.319Z,7.28
2023-04-18T09:19:48.851Z,7.35
2023-04-18T09:22:17.993Z,7.70
2023-04-18T09:24:53.533Z,7.38
2023-04-18T09:27:23.535Z,7.83
2023-04-18T09:29:56.553Z,7.97
2023-04-18T09:32:27.392Z,7.28
2023-04-18T09:34:58.380Z,7.22
2023-04-18T09:37:27.366Z,7.07
2023-04-18T09:39:56.025Z,9.25
2023-04-18T09:42:28.240Z,7.30
2023-04-18T09:45:03.686Z,6.80
2023-04-18T09:47:34.949Z,7.45
2023-04-18T09:50:04.714Z,7.03
2023-04-18T09:52:35.983Z,7.97
2023-04-18T09:55:05.910Z,7.50
2023-04-18T09:57:37.116Z,7.00
2023-04-18T10:00:14.025Z,7.40
2023-04-18T10:02:55.933Z,7.18
2023-04-18T10:05:27.349Z,7.70
2023-04-18T10:07:56.294Z,7.60
2023-04-18T10:10:24.864Z,7.57
2023-04-18T10:12:56.109Z,7.32
2023-04-18T10:15:26.415Z,6.90
2023-04-18T10:18:04.541Z,7.43
2023-04-18T10:20:35.363Z,6.70
2023-04-18T10:23:35.688Z,6.00
2023-04-18T10:26:04.461Z,5.70
2023-04-18T10:28:53.295Z,5.25
2023-04-18T10:31:23.379Z,4.90
2023-04-18T10:34:04.062Z,4.93
2023-04-18T10:36:34.081Z,4.20
2023-04-18T10:39:04.604Z,4.03
2023-04-18T10:41:35.690Z,4.53
2023-04-18T10:44:23.676Z,4.30
2023-04-18T10:47:31.956Z,4.90
2023-04-18T10:50:06.832Z,5.13
2023-04-18T10:52:35.886Z,4.38
2023-04-18T10:55:16.906Z,4.63
2023-04-18T10:57:46.068Z,5.10
2023-04-18T11:00:18.545Z,4.10
2023-04-18T11:02:56.032Z,5.10
2023-04-18T11:05:26.823Z,4.28
2023-04-18T11:07:55.394Z,4.15
2023-04-18T11:10:25.527Z,4.20
2023-04-18T11:12:54.799Z,3.90
2023-04-18T11:15:27.098Z,3.50
2023-04-18T11:18:00.540Z,3.30
2023-04-18T11:20:29.591Z,3.38
2023-04-18T11:22:59.560Z,3.70
2023-04-18T11:25:29.626Z,3.40
2023-04-18T11:28:00.880Z,3.50
2023-04-18T11:30:37.802Z,3.30
2023-04-18T11:33:08.368Z,3.72
2023-04-18T11:35:39.513Z,3.78
2023-04-18T11:38:07.998Z,4.07
2023-04-18T11:40:37.325Z,4.15
2023-04-18T11:43:08.014Z,4.07
2023-04-18T11:45:37.944Z,4.10
2023-04-18T11:48:06.482Z,4.03
2023-04-18T11:50:37.430Z,3.80
2023-04-18T11:53:05.560Z,3.75
2023-04-18T11:55:33.900Z,4.28
2023-04-18T11:58:03.223Z,4.40
2023-04-18T12:00:34.488Z,4.28
2023-04-18T12:03:05.532Z,4.30
2023-04-18T12:05:35.868Z,3.92
2023-04-18T12:08:09.184Z,4.25
2023-04-18T12:10:37.267Z,5.32
2023-04-18T12:13:08.675Z,5.40
2023-04-18T12:15:40.196Z,4.82
2023-04-18T12:18:10.161Z,4.93
2023-04-18T12:20:39.665Z,4.57
2023-04-18T12:23:08.086Z,4.63
2023-04-18T12:25:36.475Z,4.85
2023-04-18T12:28:14.315Z,4.93
2023-04-18T12:30:43.525Z,5.28
2023-04-18T12:33:12.976Z,4.68
2023-04-18T12:35:41.185Z,5.22
2023-04-18T12:38:09.212Z,5.20
2023-04-18T12:40:39.404Z,5.50
2023-04-18T12:43:08.108Z,5.28
2023-04-18T12:45:36.199Z,6.38
2023-04-18T12:48:04.370Z,6.35
2023-04-18T12:50:34.092Z,6.07
2023-04-18T12:53:03.153Z,5.88
2023-04-18T12:55:31.377Z,5.72
2023-04-18T12:57:59.636Z,5.95
2023-04-18T13:00:30.007Z,6.53
2023-04-18T13:02:58.690Z,6.00
2023-04-18T13:05:30.894Z,6.90
2023-04-18T13:10:33.813Z,7.53
2023-04-18T13:13:01.845Z,7.38
2023-04-18T13:15:29.887Z,7.85
2023-04-18T13:17:57.939Z,6.95
2023-04-18T13:20:26.268Z,7.22
2023-04-18T13:22:54.300Z,6.57
2023-04-18T13:25:23.956Z,6.50
2023-04-18T13:27:52.013Z,6.18
2023-04-18T13:30:20.094Z,6.10
2023-04-18T13:32:48.251Z,7.13
2023-04-18T13:35:16.383Z,7.50
2023-04-18T13:37:44.461Z,7.53
2023-04-18T13:40:13.620Z,7.75
2023-04-18T13:42:44.430Z,7.40
2023-04-18T13:45:12.994Z,8.43
2023-04-18T13:47:41.293Z,8.00
2023-04-18T13:50:10.932Z,7.63
2023-04-18T13:52:39.136Z,7.35
2023-04-18T13:55:08.372Z,7.15
2023-04-18T13:57:37.412Z,6.97
2023-04-18T14:00:09.246Z,6.70
2023-04-18T14:02:40.663Z,7.20
2023-04-18T14:05:09.882Z,6.50
2023-04-18T14:07:38.584Z,6.95
2023-04-18T14:10:07.795Z,6.63
2023-04-18T14:12:35.823Z,6.97
2023-04-18T14:15:04.663Z,7.25
2023-04-18T14:17:34.176Z,6.65
2023-04-18T14:20:02.422Z,7.13
2023-04-18T14:22:30.549Z,7.45
2023-04-18T14:24:58.569Z,7.00
2023-04-18T14:27:27.320Z,7.28
2023-04-18T14:29:55.333Z,6.32
2023-04-18T14:32:23.765Z,6.43
2023-04-18T14:34:53.640Z,6.93
2023-04-18T14:37:22.403Z,6.25
2023-04-18T14:39:50.627Z,6.15
2023-04-18T14:42:19.012Z,6.25
2023-04-18T14:44:47.123Z,6.93
2023-04-18T14:47:15.328Z,6.65
2023-04-18T14:49:43.445Z,6.78
2023-04-18T14:52:13.157Z,6.55
2023-04-18T14:54:41.257Z,6.88
2023-04-18T14:57:10.259Z,6.20
2023-04-18T14:59:38.403Z,6.18
2023-04-18T15:02:06.547Z,6.47
2023-04-18T15:04:34.913Z,6.72
2023-04-18T15:07:03.004Z,7.00
2023-04-18T15:09:37.311Z,6.95
2023-04-18T15:12:06.071Z,6.55
2023-04-18T15:14:34.965Z,7.05
2023-04-18T15:17:03.130Z,7.18
2023-04-18T15:19:32.150Z,6.57
2023-04-18T15:22:00.224Z,6.90
2023-04-18T15:24:28.300Z,7.43
2023-04-18T15:26:58.999Z,7.10
2023-04-18T15:29:27.106Z,6.57
2023-04-18T15:31:55.179Z,7.65
2023-04-18T15:34:23.366Z,6.97
2023-04-18T15:36:51.434Z,7.18
2023-04-18T15:39:23.294Z,6.90
2023-04-18T15:41:53.855Z,6.75
2023-04-18T15:44:23.630Z,6.82
2023-04-18T15:46:51.888Z,6.30
2023-04-18T15:49:20.047Z,6.35
2023-04-18T15:51:48.080Z,6.40
2023-04-18T15:54:16.410Z,6.75
2023-04-18T15:56:44.824Z,6.53
2023-04-18T15:59:13.220Z,6.25
2023-04-18T16:01:45.203Z,6.88
2023-04-18T16:04:14.355Z,5.88
2023-04-18T16:06:43.199Z,6.03
2023-04-18T16:09:11.236Z,6.20
2023-04-18T16:11:39.256Z,6.10
2023-04-18T16:14:07.302Z,5.88
2023-04-18T16:16:35.405Z,6.50
2023-04-18T16:19:05.530Z,5.60
2023-04-18T16:21:33.576Z,6.13
2023-04-18T16:24:01.742Z,6.07
2023-04-18T16:26:29.799Z,6.28
2023-04-18T16:28:58.127Z,6.00
2023-04-18T16:31:26.218Z,5.88
2023-04-18T16:33:54.449Z,6.38
2023-04-18T16:36:23.966Z,6.40
2023-04-18T16:38:52.022Z,6.80
2023-04-18T16:41:20.050Z,7.22
2023-04-18T16:43:48.100Z,6.47
2023-04-18T16:46:16.180Z,7.03
2023-04-18T16:48:45.242Z,6.90
2023-04-18T16:51:13.446Z,6.55
2023-04-18T16:53:42.883Z,6.72
2023-04-18T16:56:10.934Z,7.70
2023-04-18T16:58:38.995Z,7.30
2023-04-18T17:01:08.164Z,9.05
2023-04-18T17:03:36.768Z,7.20
2023-04-18T17:06:05.850Z,7.57
2023-04-18T17:08:34.237Z,7.45
2023-04-18T17:11:03.714Z,7.65
2023-04-18T17:13:32.429Z,6.78
2023-04-18T17:16:00.818Z,7.90
2023-04-18T17:18:29.442Z,7.32
2023-04-18T17:20:57.577Z,7.78
2023-04-18T17:23:25.658Z,7.78
2023-04-18T17:25:53.648Z,6.90
2023-04-18T17:28:23.703Z,7.35
2023-04-18T17:30:52.081Z,6.80
2023-04-18T17:33:20.159Z,6.95
2023-04-18T17:35:48.315Z,6.70
2023-04-18T17:38:16.340Z,7.32
2023-04-18T17:40:45.131Z,6.68
2023-04-18T17:43:13.509Z,6.93
2023-04-18T17:45:44.146Z,7.00
2023-04-18T17:48:12.276Z,7.32
2023-04-18T17:50:42.159Z,6.90
2023-04-18T17:53:12.340Z,7.25
2023-04-18T17:55:41.696Z,7.32
2023-04-18T17:58:09.938Z,7.13
2023-04-18T18:00:38.060Z,7.70
2023-04-18T18:03:09.373Z,7.90
2023-04-18T18:05:37.529Z,7.35
2023-04-18T18:08:05.874Z,7.20
2023-04-18T18:10:34.770Z,7.32
2023-04-18T18:13:03.300Z,6.97
2023-04-18T18:15:31.808Z,6.78
2023-04-18T18:18:00.425Z,7.43
2023-04-18T18:20:30.790Z,7.05
2023-04-18T18:22:59.823Z,7.18
2023-04-18T18:25:28.692Z,7.18
2023-04-18T18:27:56.823Z,6.60
2023-04-18T18:30:24.895Z,6.82
2023-04-18T18:32:53.581Z,6.80
2023-04-18T18:35:22.026Z,6.82
2023-04-18T18:37:51.623Z,6.15
2023-04-18T18:40:19.786Z,6.63
2023-04-18T18:42:49.420Z,6.38
2023-04-18T18:45:17.601Z,6.80
2023-04-18T18:47:46.268Z,6.00
2023-04-18T18:50:14.474Z,6.25
2023-04-18T18:52:43.132Z,6.20
2023-04-18T18:55:12.967Z,5.35
2023-04-18T18:57:41.000Z,5.75
2023-04-18T19:00:11.694Z,5.78
2023-04-18T19:02:40.332Z,5.18
2023-04-18T19:05:09.164Z,5.38
2023-04-18T19:07:37.164Z,5.25
2023-04-18T19:10:05.923Z,5.28
2023-04-18T19:12:35.363Z,4.82
2023-04-18T19:15:03.358Z,5.28
2023-04-18T19:17:31.601Z,4.75
2023-04-18T19:20:01.367Z,4.97
2023-04-18T19:22:29.814Z,5.15
2023-04-18T19:24:58.464Z,5.05
2023-04-18T19:27:27.058Z,5.18
2023-04-18T19:29:56.456Z,4.70
2023-04-18T19:32:24.571Z,5.22
2023-04-18T19:34:52.690Z,4.90
2023-04-18T19:37:20.728Z,4.70
2023-04-18T19:39:48.769Z,5.00
2023-04-18T19:42:16.792Z,4.82
2023-04-18T19:44:44.849Z,4.95
2023-04-18T19:47:14.309Z,4.47
2023-04-18T19:49:42.366Z,5.00
2023-04-18T19:52:10.494Z,4.85
2023-04-18T19:54:38.570Z,4.82
2023-04-18T19:57:06.546Z,5.07
2023-04-18T19:59:34.574Z,5.18
2023-04-18T20:02:05.712Z,5.10
2023-04-18T20:04:36.570Z,5.07
2023-04-18T20:07:04.899Z,5.20
2023-04-18T20:09:32.981Z,5.10
2023-04-18T20:12:02.073Z,4.68
2023-04-18T20:14:30.545Z,5.18
2023-04-18T20:16:58.655Z,5.28
2023-04-18T20:19:26.845Z,5.32
2023-04-18T20:21:56.491Z,5.43
2023-04-18T20:24:31.757Z,5.53
2023-04-18T20:27:00.696Z,5.70
2023-04-18T20:29:29.249Z,5.50
2023-04-18T20:31:57.398Z,5.40
2023-04-18T20:34:25.843Z,5.72
2023-04-18T20:36:54.029Z,5.57
2023-04-18T20:39:23.586Z,5.40
2023-04-18T20:41:52.446Z,5.85
2023-04-18T20:44:21.636Z,5.85
2023-04-18T20:46:49.821Z,5.68
2023-04-18T20:49:17.929Z,5.65
2023-04-18T20:51:46.066Z,5.45
2023-04-18T20:54:14.673Z,5.82
2023-04-18T20:56:44.367Z,5.40
2023-04-18T20:59:13.010Z,4.90
2023-04-18T21:01:41.241Z,4.93
2023-04-18T21:04:09.697Z,5.40
2023-04-18T21:06:38.090Z,4.95
2023-04-18T21:09:06.517Z,5.07
2023-04-18T21:11:34.741Z,5.55
2023-04-18T21:14:06.699Z,5.03
2023-04-18T21:16:35.358Z,5.00
2023-04-18T21:19:03.631Z,4.88
2023-04-18T21:21:31.680Z,5.20
2023-04-18T21:23:59.746Z,5.00
2023-04-18T21:26:27.859Z,5.07
2023-04-18T21:28:57.938Z,5.25
2023-04-18T21:31:29.789Z,5.10
2023-04-18T21:33:59.647Z,5.03
2023-04-18T21:36:29.511Z,5.30
2023-04-18T21:38:59.110Z,4.90
2023-04-18T21:41:27.788Z,4.80
2023-04-18T21:43:55.868Z,4.90
2023-04-18T21:46:24.032Z,5.07
2023-04-18T21:48:53.632Z,4.95
2023-04-18T21:51:21.762Z,5.00
2023-04-18T21:53:49.822Z,5.28
2023-04-18T21:56:17.996Z,4.93
2023-04-18T21:58:46.142Z,4.95
2023-04-18T22:01:14.281Z,5.45
2023-04-18T22:03:42.679Z,5.68
2023-04-18T22:06:12.310Z,5.30
2023-04-18T22:08:42.141Z,5.13
2023-04-18T22:11:11.662Z,5.65
2023-04-18T22:13:42.292Z,5.55
2023-04-18T22:32:28.415Z,5.93
2023-04-18T22:35:38.335Z,6.13
2023-04-18T22:39:14.612Z,6.72
2023-04-18T22:43:07.022Z,6.68
2023-04-18T22:46:07.265Z,6.25
2023-04-18T22:54:03.492Z,6.78
2023-04-18T23:19:21.055Z,6.80
2023-04-18T23:21:50.777Z,7.22
2023-04-18T23:24:19.053Z,7.22
2023-04-18T23:26:48.038Z,7.28
2023-04-18T23:29:16.348Z,7.22
2023-04-18T23:31:44.769Z,7.72
2023-04-18T23:34:13.260Z,8.05
2023-04-18T23:36:42.401Z,7.80
2023-04-18T23:39:12.175Z,7.63
2023-04-18T23:41:40.487Z,7.90
2023-04-18T23:44:08.797Z,8.15
2023-04-18T23:46:37.082Z,7.88
2023-04-18T23:49:05.378Z,8.13
2023-04-18T23:51:33.648Z,7.78
2023-04-18T23:54:01.998Z,8.75
2023-04-18T23:56:31.829Z,8.70
2023-04-18T23:59:00.121Z,8.65
